createdAt,value
2022-12-18T00:01:49.324Z,101044.09
2022-12-18T00:04:22.373Z,101053.22
2022-12-18T00:07:10.435Z,101060.00
2022-12-18T00:09:40.845Z,101049.72
2022-12-18T00:14:48.877Z,101072.59
2022-12-18T00:17:20.009Z,101066.88
2022-12-18T00:19:50.982Z,101075.91
2022-12-18T00:22:19.002Z,101072.06
2022-12-18T00:24:56.006Z,101068.34
2022-12-18T00:27:27.917Z,101070.97
2022-12-18T00:30:00.937Z,101077.81
2022-12-18T00:32:30.188Z,101080.81
2022-12-18T00:35:07.170Z,101076.56
2022-12-18T00:37:38.238Z,101090.09
2022-12-18T00:40:13.751Z,101093.53
2022-12-18T00:43:00.224Z,101095.31
2022-12-18T00:45:32.576Z,101087.81
2022-12-18T00:48:02.353Z,101086.56
2022-12-18T00:50:33.451Z,101087.75
2022-12-18T00:53:24.257Z,101092.41
2022-12-18T00:55:54.642Z,101093.84
2022-12-18T00:58:39.240Z,101098.63
2022-12-18T01:01:13.744Z,101091.63
2022-12-18T01:03:46.176Z,101098.50
2022-12-18T01:06:17.362Z,101101.59
2022-12-18T01:08:46.075Z,101105.06
2022-12-18T01:11:24.779Z,101114.91
2022-12-18T01:14:00.712Z,101106.84
2022-12-18T01:16:37.680Z,101113.25
2022-12-18T01:19:15.589Z,101121.25
2022-12-18T01:21:56.735Z,101117.69
2022-12-18T01:24:28.392Z,101109.84
2022-12-18T01:26:59.433Z,101106.59
2022-12-18T01:29:35.763Z,101107.06
2022-12-18T01:32:05.096Z,101121.81
2022-12-18T01:34:39.409Z,101118.75
2022-12-18T01:37:28.845Z,101128.41
2022-12-18T01:39:59.522Z,101128.59
2022-12-18T01:42:30.235Z,101130.28
2022-12-18T01:45:17.051Z,101135.34
2022-12-18T01:48:09.891Z,101133.63
2022-12-18T01:50:46.207Z,101135.34
2022-12-18T01:53:24.840Z,101132.72
2022-12-18T01:56:00.247Z,101138.34
2022-12-18T01:58:44.812Z,101136.72
2022-12-18T02:01:17.097Z,101142.41
2022-12-18T02:03:49.753Z,101135.81
2022-12-18T02:06:26.266Z,101133.03
2022-12-18T02:12:23.025Z,101150.13
2022-12-18T02:15:02.973Z,101146.44
2022-12-18T02:17:44.518Z,101156.22
2022-12-18T02:20:23.747Z,101147.19
2022-12-18T02:23:08.640Z,101153.47
2022-12-18T02:26:16.841Z,101147.47
2022-12-18T02:28:56.166Z,101154.81
2022-12-18T02:31:37.391Z,101158.84
2022-12-18T02:34:14.928Z,101157.16
2022-12-18T02:36:57.149Z,101160.16
2022-12-18T02:39:27.709Z,101161.66
2022-12-18T02:42:11.715Z,101164.91
2022-12-18T02:44:52.911Z,101164.19
2022-12-18T02:47:31.680Z,101164.41
2022-12-18T02:50:09.141Z,101169.88
2022-12-18T02:52:49.663Z,101174.06
2022-12-18T02:55:40.795Z,101177.53
2022-12-18T02:58:21.087Z,101178.19
2022-12-18T03:01:03.546Z,101182.88
2022-12-18T03:03:41.371Z,101194.06
2022-12-18T03:06:25.867Z,101195.91
2022-12-18T03:09:05.781Z,101193.69
2022-12-18T03:11:56.629Z,101197.16
2022-12-18T03:14:38.315Z,101195.00
2022-12-18T03:17:12.717Z,101184.13
2022-12-18T03:19:44.178Z,101187.00
2022-12-18T03:22:12.598Z,101182.97
2022-12-18T03:25:04.141Z,101190.31
2022-12-18T03:27:43.338Z,101180.38
2022-12-18T03:30:20.949Z,101188.13
2022-12-18T03:33:05.312Z,101186.00
2022-12-18T03:35:39.933Z,101185.81
2022-12-18T03:38:10.959Z,101185.72
2022-12-18T03:40:52.654Z,101195.59
2022-12-18T03:43:33.022Z,101194.97
2022-12-18T03:46:06.151Z,101208.41
2022-12-18T03:48:45.818Z,101203.38
2022-12-18T03:51:28.216Z,101197.31
2022-12-18T03:54:00.335Z,101192.84
2022-12-18T03:56:41.553Z,101203.88
2022-12-18T03:59:11.442Z,101206.78
2022-12-18T04:01:47.942Z,101210.44
2022-12-18T04:04:26.651Z,101215.44
2022-12-18T04:07:01.146Z,101220.94
2022-12-18T04:09:40.176Z,101211.13
2022-12-18T04:12:15.120Z,101219.25
2022-12-18T04:14:55.190Z,101222.03
2022-12-18T04:17:27.758Z,101230.50
2022-12-18T04:20:12.814Z,101230.78
2022-12-18T04:22:45.189Z,101231.53
2022-12-18T04:25:16.946Z,101228.03
2022-12-18T04:28:07.715Z,101236.38
2022-12-18T04:30:40.614Z,101232.66
2022-12-18T04:33:14.602Z,101237.56
2022-12-18T04:36:03.501Z,101248.03
2022-12-18T04:38:32.622Z,101246.28
2022-12-18T04:41:13.790Z,101246.81
2022-12-18T04:43:46.182Z,101251.38
2022-12-18T04:46:16.573Z,101244.50
2022-12-18T04:48:58.690Z,101245.47
2022-12-18T04:51:33.879Z,101253.75
2022-12-18T04:54:04.846Z,101252.97
2022-12-18T04:56:48.446Z,101259.25
2022-12-18T04:59:16.501Z,101266.22
2022-12-18T05:01:48.356Z,101269.53
2022-12-18T05:04:25.068Z,101269.63
2022-12-18T05:06:55.974Z,101275.59
2022-12-18T05:09:33.166Z,101280.22
2022-12-18T05:12:10.404Z,101281.09
2022-12-18T05:14:41.300Z,101282.97
2022-12-18T05:17:23.459Z,101283.00
2022-12-18T05:19:58.449Z,101288.88
2022-12-18T05:22:42.090Z,101290.97
2022-12-18T05:25:19.120Z,101279.56
2022-12-18T05:27:51.431Z,101284.69
2022-12-18T05:30:32.073Z,101286.25
2022-12-18T05:33:08.487Z,101284.19
2022-12-18T05:35:43.565Z,101279.38
2022-12-18T05:38:22.175Z,101287.31
2022-12-18T05:40:58.723Z,101300.41
2022-12-18T05:43:39.748Z,101298.66
2022-12-18T05:46:17.236Z,101300.28
2022-12-18T05:48:51.748Z,101299.63
2022-12-18T05:51:28.214Z,101292.72
2022-12-18T05:54:00.157Z,101290.16
2022-12-18T05:56:48.522Z,101296.22
2022-12-18T05:59:17.443Z,101303.03
2022-12-18T06:01:53.947Z,101308.25
2022-12-18T06:04:31.432Z,101305.88
2022-12-18T06:07:09.266Z,101315.66
2022-12-18T06:09:43.591Z,101311.16
2022-12-18T06:12:13.255Z,101313.97
2022-12-18T06:14:42.716Z,101326.94
2022-12-18T06:17:11.848Z,101332.22
2022-12-18T06:19:43.679Z,101325.25
2022-12-18T06:22:21.905Z,101327.72
2022-12-18T06:24:54.075Z,101336.56
2022-12-18T06:27:26.126Z,101338.91
2022-12-18T06:30:02.626Z,101345.97
2022-12-18T06:32:46.651Z,101354.00
2022-12-18T06:35:27.422Z,101348.81
2022-12-18T06:37:58.086Z,101345.13
2022-12-18T06:40:34.167Z,101343.53
2022-12-18T06:43:03.469Z,101343.53
2022-12-18T06:45:42.031Z,101347.59
2022-12-18T06:48:13.420Z,101356.44
2022-12-18T06:50:49.465Z,101352.00
2022-12-18T06:53:18.639Z,101356.44
2022-12-18T06:55:57.578Z,101368.03
2022-12-18T06:58:27.746Z,101369.81
2022-12-18T07:00:58.458Z,101374.84
2022-12-18T07:03:30.032Z,101377.97
2022-12-18T07:06:00.959Z,101383.31
2022-12-18T07:08:32.109Z,101391.97
2022-12-18T07:11:15.093Z,101391.19
2022-12-18T07:13:46.790Z,101391.31
2022-12-18T07:16:24.701Z,101404.50
2022-12-18T07:19:02.008Z,101403.66
2022-12-18T07:21:32.525Z,101402.03
2022-12-18T07:24:01.663Z,101409.63
2022-12-18T07:26:38.787Z,101416.63
2022-12-18T07:29:16.156Z,101422.88
2022-12-18T07:31:52.083Z,101419.78
2022-12-18T07:34:30.208Z,101422.25
2022-12-18T07:36:59.236Z,101419.59
2022-12-18T07:39:33.344Z,101430.00
2022-12-18T07:42:22.514Z,101430.03
2022-12-18T07:44:59.759Z,101435.19
2022-12-18T07:47:34.348Z,101434.97
2022-12-18T07:50:08.997Z,101445.59
2022-12-18T07:52:39.399Z,101458.66
2022-12-18T07:55:11.230Z,101462.19
2022-12-18T07:57:54.345Z,101460.38
2022-12-18T08:00:32.461Z,101461.06
2022-12-18T08:03:07.833Z,101475.13
2022-12-18T08:05:38.822Z,101472.69
2022-12-18T08:08:08.753Z,101469.06
2022-12-18T08:10:49.386Z,101477.72
2022-12-18T08:13:26.964Z,101472.78
2022-12-18T08:16:09.704Z,101476.84
2022-12-18T08:18:43.010Z,101470.97
2022-12-18T08:21:22.171Z,101477.09
2022-12-18T08:23:53.980Z,101484.06
2022-12-18T08:26:25.912Z,101479.34
2022-12-18T08:28:56.989Z,101470.94
2022-12-18T08:31:28.389Z,101476.06
2022-12-18T08:34:00.116Z,101476.09
2022-12-18T08:36:44.373Z,101473.59
2022-12-18T08:39:13.908Z,101473.44
2022-12-18T08:41:43.357Z,101474.16
2022-12-18T08:44:32.677Z,101493.28
2022-12-18T08:47:01.437Z,101482.16
2022-12-18T08:49:34.442Z,101485.41
2022-12-18T08:52:03.960Z,101488.94
2022-12-18T08:54:34.844Z,101485.47
2022-12-18T08:57:05.507Z,101491.28
2022-12-18T08:59:42.292Z,101496.78
2022-12-18T09:02:14.464Z,101499.25
2022-12-18T09:04:46.909Z,101489.75
2022-12-18T09:07:22.103Z,101500.03
2022-12-18T09:10:03.559Z,101490.47
2022-12-18T09:12:34.496Z,101499.91
2022-12-18T09:15:12.442Z,101503.50
2022-12-18T09:17:48.153Z,101512.81
2022-12-18T09:20:18.896Z,101501.44
2022-12-18T09:22:55.646Z,101510.97
2022-12-18T09:25:35.442Z,101516.81
2022-12-18T09:28:07.339Z,101508.19
2022-12-18T09:30:49.109Z,101505.09
2022-12-18T09:33:23.190Z,101504.13
2022-12-18T09:35:53.671Z,101510.16
2022-12-18T09:38:34.526Z,101501.28
2022-12-18T09:41:15.780Z,101499.47
2022-12-18T09:43:57.569Z,101502.78
2022-12-18T09:46:38.199Z,101509.25
2022-12-18T09:49:12.604Z,101510.19
2022-12-18T09:51:45.632Z,101501.94
2022-12-18T09:54:21.736Z,101494.09
2022-12-18T09:57:00.374Z,101495.06
2022-12-18T09:59:42.317Z,101487.28
2022-12-18T10:02:25.739Z,101485.38
2022-12-18T10:05:10.896Z,101496.06
2022-12-18T10:07:53.309Z,101493.28
2022-12-18T10:10:46.336Z,101481.84
2022-12-18T10:16:36.937Z,101474.56
2022-12-18T10:19:30.713Z,101480.56
2022-12-18T10:22:06.222Z,101482.41
2022-12-18T10:24:37.547Z,101485.94
2022-12-18T10:27:15.694Z,101475.91
2022-12-18T10:29:44.444Z,101475.84
2022-12-18T10:32:16.792Z,101480.78
2022-12-18T10:34:48.791Z,101482.47
2022-12-18T10:37:19.569Z,101473.50
2022-12-18T10:39:47.799Z,101476.16
2022-12-18T10:42:20.162Z,101483.44
2022-12-18T10:44:48.158Z,101484.63
2022-12-18T10:47:18.085Z,101469.47
2022-12-18T10:49:54.074Z,101470.38
2022-12-18T10:52:24.126Z,101470.28
2022-12-18T10:54:59.251Z,101468.75
2022-12-18T10:57:37.056Z,101468.59
2022-12-18T11:00:24.412Z,101452.59
2022-12-18T11:02:52.784Z,101455.16
2022-12-18T11:05:33.959Z,101459.63
2022-12-18T11:08:02.670Z,101458.44
2022-12-18T11:10:33.146Z,101455.81
2022-12-18T11:13:12.966Z,101450.06
2022-12-18T11:15:42.689Z,101447.28
2022-12-18T11:18:19.045Z,101449.22
2022-12-18T11:20:58.523Z,101442.09
2022-12-18T11:23:27.725Z,101448.34
2022-12-18T11:26:00.283Z,101456.09
2022-12-18T11:28:31.707Z,101460.22
2022-12-18T11:31:19.632Z,101458.59
2022-12-18T11:34:19.773Z,101460.91
2022-12-18T11:36:41.701Z,101454.69
2022-12-18T11:39:14.542Z,101453.59
2022-12-18T11:42:06.513Z,101450.19
2022-12-18T11:44:40.838Z,101448.94
2022-12-18T11:47:15.321Z,101453.31
2022-12-18T11:49:43.992Z,101442.81
2022-12-18T11:52:18.858Z,101438.25
2022-12-18T11:54:47.014Z,101427.09
2022-12-18T11:57:22.214Z,101427.16
2022-12-18T11:59:54.584Z,101426.81
2022-12-18T12:02:34.860Z,101418.06
2022-12-18T12:05:23.318Z,101431.25
2022-12-18T12:07:58.701Z,101433.22
2022-12-18T12:10:36.236Z,101430.44
2022-12-18T12:13:18.064Z,101432.22
2022-12-18T12:15:54.114Z,101431.13
2022-12-18T12:18:28.133Z,101427.88
2022-12-18T12:21:02.318Z,101422.41
2022-12-18T12:23:39.643Z,101424.19
2022-12-18T12:26:09.840Z,101426.72
2022-12-18T12:29:00.704Z,101419.41
2022-12-18T12:31:41.394Z,101418.94
2022-12-18T12:34:15.051Z,101419.91
2022-12-18T12:36:55.390Z,101422.41
2022-12-18T12:39:29.524Z,101408.00
2022-12-18T12:42:15.401Z,101410.47
2022-12-18T12:44:49.098Z,101399.13
2022-12-18T12:47:27.806Z,101397.50
2022-12-18T12:49:56.778Z,101400.97
2022-12-18T12:52:30.890Z,101403.31
2022-12-18T12:55:00.804Z,101411.28
2022-12-18T12:57:34.887Z,101413.97
2022-12-18T13:00:05.855Z,101415.91
2022-12-18T13:02:39.638Z,101422.88
2022-12-18T13:05:15.695Z,101421.38
2022-12-18T13:07:50.125Z,101427.44
2022-12-18T13:10:43.832Z,101429.84
2022-12-18T13:13:13.382Z,101426.69
2022-12-18T13:15:44.308Z,101430.09
2022-12-18T13:18:17.197Z,101432.75
2022-12-18T13:20:53.161Z,101441.34
2022-12-18T13:23:30.715Z,101431.75
2022-12-18T13:26:01.553Z,101451.13
2022-12-18T13:28:54.227Z,101451.19
2022-12-18T13:32:10.283Z,101450.41
2022-12-18T13:34:38.655Z,101448.38
2022-12-18T13:37:44.070Z,101448.56
2022-12-18T13:40:55.098Z,101441.56
2022-12-18T13:43:32.909Z,101441.56
2022-12-18T13:46:23.581Z,101440.84
2022-12-18T13:48:56.125Z,101453.78
2022-12-18T13:51:24.857Z,101449.34
2022-12-18T13:53:54.224Z,101453.81
2022-12-18T13:56:25.572Z,101459.66
2022-12-18T13:59:23.254Z,101456.41
2022-12-18T14:01:55.962Z,101457.84
2022-12-18T14:04:27.553Z,101462.72
2022-12-18T14:06:58.724Z,101463.53
2022-12-18T14:09:29.707Z,101461.72
2022-12-18T14:12:19.437Z,101461.63
2022-12-18T14:14:53.112Z,101467.66
2022-12-18T14:17:25.019Z,101458.13
2022-12-18T14:19:53.744Z,101470.25
2022-12-18T14:22:22.930Z,101469.56
2022-12-18T14:25:08.920Z,101462.56
2022-12-18T14:27:40.021Z,101476.81
2022-12-18T14:30:26.467Z,101481.69
2022-12-18T14:33:02.970Z,101495.00
2022-12-18T14:35:32.436Z,101482.53
2022-12-18T14:38:24.361Z,101482.66
2022-12-18T14:41:00.419Z,101483.44
2022-12-18T14:43:31.364Z,101486.84
2022-12-18T14:46:01.546Z,101487.72
2022-12-18T14:48:38.941Z,101483.38
2022-12-18T14:51:09.241Z,101488.91
2022-12-18T14:53:42.578Z,101492.16
2022-12-18T14:56:41.782Z,101489.03
2022-12-18T14:59:24.680Z,101495.88
2022-12-18T15:02:14.814Z,101491.69
2022-12-18T15:05:12.879Z,101494.09
2022-12-18T15:07:48.753Z,101510.84
2022-12-18T15:10:32.134Z,101508.88
2022-12-18T15:13:31.781Z,101507.50
2022-12-18T15:16:18.039Z,101495.75
2022-12-18T15:19:01.625Z,101502.91
2022-12-18T15:21:35.440Z,101500.28
2022-12-18T15:24:17.970Z,101510.75
2022-12-18T15:26:56.020Z,101507.34
2022-12-18T15:29:38.641Z,101504.72
2022-12-18T15:32:25.961Z,101503.78
2022-12-18T15:35:21.750Z,101503.75
2022-12-18T15:37:54.885Z,101492.25
2022-12-18T15:40:30.081Z,101497.63
2022-12-18T15:43:15.885Z,101490.47
2022-12-18T15:45:47.598Z,101501.94
2022-12-18T15:48:32.827Z,101501.13
2022-12-18T15:51:37.344Z,101502.78
2022-12-18T15:54:45.628Z,101501.00
2022-12-18T15:57:29.454Z,101505.53
2022-12-18T16:00:15.798Z,101517.66
2022-12-18T16:02:54.648Z,101510.78
2022-12-18T16:05:39.816Z,101497.78
2022-12-18T16:08:12.814Z,101506.34
2022-12-18T16:10:54.874Z,101517.72
2022-12-18T16:13:31.309Z,101512.50
2022-12-18T16:16:15.039Z,101517.50
2022-12-18T16:24:46.854Z,101507.13
2022-12-18T16:27:27.211Z,101504.59
2022-12-18T16:30:06.745Z,101491.13
2022-12-18T16:32:39.575Z,101509.50
2022-12-18T16:35:23.155Z,101508.50
2022-12-18T16:37:59.127Z,101505.03
2022-12-18T16:41:09.922Z,101504.16
2022-12-18T16:43:54.959Z,101498.84
2022-12-18T16:46:33.808Z,101500.44
2022-12-18T16:49:20.986Z,101503.38
2022-12-18T16:51:54.057Z,101492.00
2022-12-18T16:54:30.357Z,101498.78
2022-12-18T16:57:09.373Z,101497.97
2022-12-18T16:59:56.030Z,101501.69
2022-12-18T17:02:30.370Z,101501.56
2022-12-18T17:05:08.740Z,101498.75
2022-12-18T17:07:48.155Z,101494.66
2022-12-18T17:10:27.041Z,101500.84
2022-12-18T17:13:25.911Z,101498.13
2022-12-18T17:16:23.753Z,101491.94
2022-12-18T17:19:03.609Z,101485.59
2022-12-18T17:21:35.984Z,101486.53
2022-12-18T17:24:12.525Z,101482.06
2022-12-18T17:26:52.121Z,101485.84
2022-12-18T17:29:32.856Z,101487.31
2022-12-18T17:35:07.526Z,101480.56
2022-12-18T17:38:04.577Z,101477.88
2022-12-18T17:40:36.277Z,101486.66
2022-12-18T17:43:26.640Z,101489.53
2022-12-18T17:46:13.337Z,101484.84
2022-12-18T17:48:59.354Z,101489.38
2022-12-18T17:51:39.201Z,101485.84
2022-12-18T17:54:16.419Z,101492.59
2022-12-18T17:56:49.570Z,101492.56
2022-12-18T17:59:28.237Z,101483.81
2022-12-18T18:02:03.934Z,101479.72
2022-12-18T18:04:43.166Z,101472.41
2022-12-18T18:07:30.310Z,101468.91
2022-12-18T18:10:12.734Z,101471.38
2022-12-18T18:13:01.725Z,101482.19
2022-12-18T18:15:43.328Z,101480.47
2022-12-18T18:18:28.692Z,101481.47
2022-12-18T18:21:01.077Z,101480.44
2022-12-18T18:23:42.477Z,101482.38
2022-12-18T18:26:19.206Z,101490.63
2022-12-18T18:28:55.526Z,101481.03
2022-12-18T18:31:33.623Z,101484.25
2022-12-18T18:34:14.580Z,101473.41
2022-12-18T18:36:45.602Z,101471.41
2022-12-18T18:39:15.614Z,101471.34
2022-12-18T18:41:48.672Z,101477.19
2022-12-18T18:44:29.624Z,101477.31
2022-12-18T18:47:24.673Z,101480.47
2022-12-18T18:50:09.026Z,101488.81
2022-12-18T18:52:44.595Z,101482.03
2022-12-18T18:55:32.694Z,101483.69
2022-12-18T18:58:11.326Z,101472.34
2022-12-18T19:00:49.114Z,101476.53
2022-12-18T19:03:24.753Z,101492.09
2022-12-18T19:06:07.297Z,101482.81
2022-12-18T19:08:38.141Z,101482.84
2022-12-18T19:11:36.205Z,101478.66
2022-12-18T19:14:15.122Z,101480.88
2022-12-18T19:16:54.684Z,101477.56
2022-12-18T19:19:33.894Z,101478.56
2022-12-18T19:22:09.841Z,101482.19
2022-12-18T19:24:43.079Z,101468.97
2022-12-18T19:27:23.423Z,101475.09
2022-12-18T19:30:02.145Z,101473.56
2022-12-18T19:32:34.386Z,101466.09
2022-12-18T19:35:13.300Z,101474.00
2022-12-18T19:37:58.283Z,101475.78
2022-12-18T19:40:35.785Z,101475.06
2022-12-18T19:43:18.515Z,101477.28
2022-12-18T19:45:51.923Z,101465.91
2022-12-18T19:48:34.819Z,101474.53
2022-12-18T19:51:20.577Z,101479.41
2022-12-18T19:53:59.893Z,101474.75
2022-12-18T19:56:53.653Z,101480.06
2022-12-18T19:59:27.489Z,101476.94
2022-12-18T20:02:00.212Z,101476.53
2022-12-18T20:04:35.439Z,101471.69
2022-12-18T20:07:06.518Z,101471.22
2022-12-18T20:10:02.627Z,101480.63
2022-12-18T20:12:46.814Z,101479.03
2022-12-18T20:15:22.972Z,101475.50
2022-12-18T20:18:11.221Z,101470.47
2022-12-18T20:20:50.349Z,101462.59
2022-12-18T20:23:23.228Z,101465.75
2022-12-18T20:26:27.576Z,101462.50
2022-12-18T20:29:04.121Z,101458.28
2022-12-18T20:31:36.741Z,101459.88
2022-12-18T20:34:11.857Z,101468.47
2022-12-18T20:36:42.557Z,101456.59
2022-12-18T20:39:20.739Z,101458.09
2022-12-18T20:42:01.879Z,101453.94
2022-12-18T20:44:34.348Z,101450.03
2022-12-18T20:47:10.523Z,101447.97
2022-12-18T20:49:45.327Z,101444.00
2022-12-18T20:52:19.042Z,101450.78
2022-12-18T20:54:49.578Z,101438.84
2022-12-18T20:57:20.923Z,101443.13
2022-12-18T20:59:52.800Z,101435.75
2022-12-18T21:02:30.788Z,101431.63
2022-12-18T21:05:04.304Z,101434.25
2022-12-18T21:07:34.812Z,101429.72
2022-12-18T21:10:08.297Z,101431.56
2022-12-18T21:12:58.871Z,101432.41
2022-12-18T21:15:34.482Z,101431.25
2022-12-18T21:18:09.197Z,101424.72
2022-12-18T21:20:38.413Z,101430.63
2022-12-18T21:23:21.919Z,101429.00
2022-12-18T21:25:56.061Z,101420.34
2022-12-18T21:28:28.619Z,101413.16
2022-12-18T21:31:01.036Z,101428.09
2022-12-18T21:33:32.821Z,101427.50
2022-12-18T21:36:04.903Z,101414.03
2022-12-18T21:38:32.972Z,101409.09
2022-12-18T21:41:01.109Z,101411.88
2022-12-18T21:43:54.844Z,101407.34
2022-12-18T21:46:31.618Z,101412.03
2022-12-18T21:49:05.615Z,101406.28
2022-12-18T21:51:38.169Z,101398.97
2022-12-18T21:54:10.474Z,101412.63
2022-12-18T21:56:57.408Z,101408.66
2022-12-18T21:59:35.363Z,101418.19
2022-12-18T22:02:14.786Z,101413.19
2022-12-18T22:04:47.205Z,101413.38
2022-12-18T22:07:16.935Z,101408.00
2022-12-18T22:09:50.940Z,101405.19
2022-12-18T22:12:44.488Z,101405.25
2022-12-18T22:15:25.850Z,101397.53
2022-12-18T22:17:59.519Z,101403.19
2022-12-18T22:20:35.632Z,101405.50
2022-12-18T22:23:15.651Z,101410.72
2022-12-18T22:25:51.259Z,101402.91
2022-12-18T22:28:40.721Z,101399.53
2022-12-18T22:31:28.940Z,101397.28
2022-12-18T22:34:06.975Z,101395.28
2022-12-18T22:36:41.372Z,101389.25
2022-12-18T22:39:21.394Z,101385.53
2022-12-18T22:41:54.083Z,101381.38
2022-12-18T22:44:26.529Z,101385.47
2022-12-18T22:47:08.343Z,101373.25
2022-12-18T22:49:39.173Z,101359.59
2022-12-18T22:52:15.272Z,101345.34
2022-12-18T22:54:48.679Z,101346.25
2022-12-18T22:57:22.642Z,101344.84
2022-12-18T22:59:55.273Z,101344.47
2022-12-18T23:02:27.224Z,101337.59
2022-12-18T23:04:57.957Z,101354.28
2022-12-18T23:07:31.280Z,101348.78
2022-12-18T23:10:08.038Z,101364.53
2022-12-18T23:12:43.174Z,101361.16
2022-12-18T23:15:17.810Z,101355.13
2022-12-18T23:18:02.960Z,101338.81
2022-12-18T23:20:39.753Z,101342.69
2022-12-18T23:23:11.389Z,101343.75
2022-12-18T23:25:50.142Z,101339.84
2022-12-18T23:28:22.023Z,101337.31
2022-12-18T23:30:53.005Z,101337.50
2022-12-18T23:33:25.430Z,101345.16
2022-12-18T23:36:03.476Z,101336.16
2022-12-18T23:38:40.978Z,101333.84
2022-12-18T23:41:11.975Z,101335.09
2022-12-18T23:43:46.615Z,101321.28
2022-12-18T23:46:20.677Z,101330.25
2022-12-18T23:48:54.607Z,101321.81
2022-12-18T23:51:34.659Z,101314.84
2022-12-18T23:54:13.036Z,101316.63
2022-12-18T23:56:44.845Z,101312.44
2022-12-18T23:59:24.019Z,101300.50
